x

Big Carlos Pass, Fl (bgcf1) Weather Station

6:54am - Wed 28th Jan 2015 All times are EST. -5 hours from GMT.

  • Wind
    9mph, 13mph gusts
  • Air Temp 55°f
  • Sea Pressure 1020.7mb
  • Big Carlos Pass, Fl
  • Big Carlos Pass, Fl

More Historic Weather Station data

Upgrade to MSW Pro to gain access to the past 30 days of data for over 8000 Wavebouys and Weather Stations around the globe.

Join Pro

Comparision Forecast

View Surf forecast
   
Wed 01/28 6:54am 9 13 mph 1020.7mb 55f
6:48am 9 11 mph 1020.7mb 56f
5:54am 10 14 mph 1020.1mb 57f
5:48am 10 13 mph 1020mb 57f
4:54am 13 16 mph 1019.3mb 57f
4:48am 13 14 mph 1019.3mb 57f
3:54am 14 16 mph 1018.9mb 58f
3:48am 14 18 mph 1018.8mb 58f
2:54am 14 16 mph 1018.4mb 60f
2:48am 14 17 mph 1018.3mb 60f
1:54am 13 15 mph 1018.5mb 62f
1:48am 14 16 mph 1018.5mb 62f
12:54am 13 17 mph 1018.2mb 64f
12:48am 13 16 mph 1018.1mb 65f
Tue 01/27 11:54pm 9 14 mph 1018mb 67f
11:48pm 7 13 mph 1017.8mb 67f
10:54pm 7 15 mph 1017.9mb 66f
10:48pm 6 10 mph 1017.8mb 66f
9:54pm 7 10 mph 1017.7mb 66f
9:48pm 7 14 mph 1017.7mb 66f
7:54pm 8 10 mph 1016.7mb 66f
7:48pm 8 11 mph 1016.6mb 66f
6:54pm 9 13 mph 1016.6mb -
6:48pm 10 14 mph 1016.6mb -
5:54pm 8 13 mph 1016.6mb 66f
5:48pm 10 17 mph 1016.6mb 67f
4:54pm 10 16 mph 1016.4mb 67f
4:48pm 9 18 mph 1016.4mb 67f
3:54pm 13 15 mph 1016.3mb 64f
3:48pm 14 16 mph 1016.3mb 64f
2:54pm 13 15 mph 1016.6mb 63f
2:48pm 13 15 mph 1016.6mb 64f
1:54pm 8 10 mph 1017.1mb 63f
1:48pm 8 11 mph 1017.1mb 63f
12:54pm 9 14 mph 1017.9mb 63f
12:48pm 10 14 mph 1018mb 63f
11:54am 10 15 mph 1018.9mb 63f
11:48am 11 16 mph 1018.9mb 62f
10:54am 8 10 mph 1019.4mb 60f
10:48am 8 11 mph 1019.5mb 60f
9:54am 6 9 mph 1019.3mb 59f
9:48am 7 11 mph 1019.2mb 59f
8:54am 10 13 mph 1018.4mb 56f
8:48am 10 13 mph 1018.4mb 56f
7:54am 10 14 mph 1018mb 56f
7:48am 13 16 mph 1018mb 56f
5:54am 8 10 mph 1016.8mb 58f
5:48am 8 9 mph 1016.7mb 58f
4:54am 6 7 mph 1016.2mb 59f
4:48am 6 7 mph 1016.1mb 59f
3:54am 5 6 mph 1016mb 59f
3:48am 5 7 mph 1016mb 59f
2:54am 6 8 mph 1016mb 60f
2:48am 7 11 mph 1016mb 60f
1:54am 7 10 mph 1015.6mb 62f
1:48am 8 11 mph 1015.8mb 62f
12:54am 13 20 mph 1016mb 62f
12:48am 10 16 mph 1015.9mb 63f
Mon 01/26 11:54pm 11 22 mph 1015.9mb 63f
11:48pm 10 16 mph 1016mb 63f
10:54pm 14 20 mph 1016mb 64f
10:48pm 13 22 mph 1015.9mb 64f
9:54pm 8 13 mph 1015.3mb 63f
9:48pm 9 13 mph 1015.3mb 63f
8:54pm 15 25 mph 1015.1mb 64f
8:48pm 16 24 mph 1015mb 64f
7:54pm 13 20 mph 1014.6mb 65f
7:48pm 14 24 mph 1014.4mb 65f
6:54pm 13 22 mph 1014.1mb 65f
6:48pm 13 22 mph 1014.1mb 65f
5:54pm 14 21 mph 1013.5mb 66f
5:48pm 15 22 mph 1013.5mb 67f
4:54pm 17 25 mph 1013.5mb 67f
4:48pm 17 28 mph 1013.5mb 67f
3:54pm 17 29 mph 1013.1mb 68f
3:48pm 18 28 mph 1013.1mb 68f
2:54pm 21 30 mph 1013mb 68f
2:48pm 23 32 mph 1012.9mb 68f
1:54pm 22 31 mph 1013mb 69f
1:48pm 21 34 mph 1013.1mb 69f
12:54pm 16 23 mph 1013.4mb 69f
12:48pm 16 23 mph 1013.6mb 69f
11:54am 14 22 mph 1014.5mb 69f
11:48am 15 25 mph 1014.7mb 69f
10:54am 13 22 mph 1015.1mb 68f
10:48am 14 22 mph 1015.1mb 68f
8:54am 9 17 mph 1014.5mb 64f
8:48am 11 18 mph 1014.5mb 64f
7:54am 16 21 mph 1013.3mb 69f
7:48am 18 25 mph 1013.2mb 69f
6:54am 21 23 mph 1012.6mb 69f
6:48am 20 23 mph 1012.5mb 69f
5:54am 17 18 mph 1012.4mb 69f
5:48am 17 20 mph 1012.5mb 69f
4:54am 20 23 mph 1012.7mb 68f
4:48am 20 23 mph 1012.8mb 68f
2:54am 21 24 mph 1013.7mb 67f
2:48am 21 23 mph 1013.6mb 67f
1:54am 18 21 mph 1014mb 67f
1:48am 18 21 mph 1014.1mb 67f
12:54am 17 20 mph 1014.5mb 67f
12:48am 16 18 mph 1014.6mb 67f
Sun 01/25 11:54pm 11 14 mph 1015.9mb 64f
11:48pm 13 14 mph 1016mb 64f
10:54pm 10 13 mph 1016.6mb 64f
10:48pm 9 11 mph 1016.6mb 64f
9:54pm 8 9 mph 1016.8mb 63f
9:48pm 8 9 mph 1016.7mb 63f
8:54pm 8 10 mph 1017.5mb 63f
8:48pm 7 9 mph 1017.3mb 63f
7:54pm 6 9 mph 1017.7mb 63f
7:48pm 7 9 mph 1017.5mb 63f
6:54pm 6 8 mph 1017.3mb 63f
6:48pm 7 9 mph 1017.1mb 63f
5:54pm 6 7 mph 1017mb 63f
5:48pm 7 9 mph 1016.7mb 63f
4:54pm 6 7 mph 1016.1mb 64f
4:48pm 7 9 mph 1016.1mb 64f
3:54pm 7 9 mph 1015.6mb 65f
3:48pm 7 10 mph 1015.6mb 64f
2:54pm 6 10 mph 1016.3mb 65f
2:48pm 8 13 mph 1016.3mb 65f
1:54pm 6 10 mph 1016.9mb 63f
1:48pm 7 11 mph 1017mb 63f
12:54pm 5 9 mph 1017.9mb 62f